Time;durP1;ratioP1;P1;durP2;ratioP2;P2;SDS_P1;SDS_P2;PMS_P1;PMS_P2;Temp;Humidity;BMP_temperature;BMP_pressure;BME280_temperature;BME280_humidity;BME280_pressure;Samples;Min_cycle;Max_cycle;Signal;HPM_P1;HPM_P2
2022/04/16 00:00:06;;;;;;;15.43;9.73;;;8.30;99.90;;;;;;5042581;28;20057;-84
2022/04/16 00:02:32;;;;;;;16.38;10.02;;;8.30;99.90;;;;;;5075959;28;20048;-84
2022/04/16 00:04:57;;;;;;;13.18;8.80;;;8.30;99.90;;;;;;5076939;28;20075;-84
2022/04/16 00:07:23;;;;;;;16.55;9.40;;;8.30;99.90;;;;;;5075559;28;20052;-84
2022/04/16 00:09:49;;;;;;;13.90;9.40;;;8.40;99.90;;;;;;5058544;28;20052;-84
2022/04/16 00:12:14;;;;;;;15.75;9.20;;;8.30;99.90;;;;;;5074913;28;20146;-84
2022/04/16 00:14:40;;;;;;;16.70;9.63;;;8.90;99.90;;;;;;5059520;28;20487;-84
2022/04/16 00:17:06;;;;;;;16.92;9.75;;;8.40;99.90;;;;;;5059128;28;20053;-83
2022/04/16 00:19:32;;;;;;;17.00;9.75;;;8.90;99.90;;;;;;5076513;28;20492;-84
2022/04/16 00:22:00;;;;;;;15.80;9.18;;;8.30;99.90;;;;;;5075231;28;20055;-87
2022/04/16 00:24:28;;;;;;;13.98;9.27;;;9.00;99.90;;;;;;5056931;28;20129;-84
2022/04/16 00:26:53;;;;;;;14.70;9.13;;;8.40;99.90;;;;;;5076026;28;20127;-83
2022/04/16 00:29:19;;;;;;;13.80;9.00;;;8.40;99.90;;;;;;5075280;28;20083;-86
2022/04/16 00:31:47;;;;;;;14.52;9.27;;;8.40;99.90;;;;;;5058332;28;20040;-87
2022/04/16 00:34:14;;;;;;;15.15;9.43;;;8.40;99.90;;;;;;5041563;28;20222;-84
2022/04/16 00:36:44;;;;;;;16.27;8.88;;;8.40;99.90;;;;;;5042152;28;20036;-83
2022/04/16 00:39:10;;;;;;;13.85;9.07;;;8.30;99.90;;;;;;5041752;28;20127;-87
2022/04/16 00:41:36;;;;;;;13.85;8.95;;;8.50;99.90;;;;;;5041390;28;20044;-84
2022/04/16 00:44:02;;;;;;;16.55;9.77;;;8.10;99.90;;;;;;5074545;28;20094;-84
2022/04/16 00:46:28;;;;;;;14.63;8.90;;;8.00;99.90;;;;;;5057856;28;20053;-84
2022/04/16 00:48:54;;;;;;;17.13;9.27;;;7.90;99.90;;;;;;5076209;28;20083;-84
2022/04/16 00:51:20;;;;;;;14.38;9.52;;;8.60;99.90;;;;;;5041048;28;20056;-83
2022/04/16 00:53:46;;;;;;;16.63;9.48;;;7.70;99.90;;;;;;5076098;28;20045;-83
2022/04/16 00:56:13;;;;;;;16.40;9.43;;;8.20;99.90;;;;;;5040913;28;20040;-84
2022/04/16 00:58:41;;;;;;;18.00;9.85;;;7.50;99.90;;;;;;5041619;28;20052;-84
2022/04/16 01:01:08;;;;;;;19.23;10.57;;;7.50;99.90;;;;;;5040790;28;20062;-84
2022/04/16 01:03:34;;;;;;;15.25;9.35;;;7.30;99.90;;;;;;5041564;28;20067;-84
2022/04/16 01:05:59;;;;;;;16.92;10.38;;;7.30;99.90;;;;;;5057695;28;20044;-87
2022/04/16 01:08:25;;;;;;;17.73;9.77;;;7.60;99.90;;;;;;5058232;28;20043;-84
2022/04/16 01:10:51;;;;;;;16.75;9.65;;;7.30;99.90;;;;;;5057549;28;20048;-84
2022/04/16 01:13:18;;;;;;;16.30;9.52;;;7.00;99.90;;;;;;5040799;28;20048;-87
2022/04/16 01:15:44;;;;;;;15.43;10.10;;;6.90;99.90;;;;;;5076629;28;20044;-85
2022/04/16 01:18:12;;;;;;;17.27;10.20;;;6.80;99.90;;;;;;5041789;28;20497;-84
2022/04/16 01:20:39;;;;;;;16.85;10.07;;;6.80;99.90;;;;;;5075743;28;20070;-84
2022/04/16 01:23:05;;;;;;;17.90;10.60;;;6.70;99.90;;;;;;5057953;28;20084;-83
2022/04/16 01:25:35;;;;;;;17.85;10.98;;;6.60;99.90;;;;;;5057612;28;20053;-84
2022/04/16 01:28:02;;;;;;;15.77;10.48;;;6.60;99.90;;;;;;5041647;28;20041;-84
2022/04/16 01:30:28;;;;;;;17.63;10.25;;;6.80;99.90;;;;;;5058360;28;20133;-84
2022/04/16 01:32:54;;;;;;;17.77;11.45;;;6.50;99.90;;;;;;5041532;28;20499;-84
2022/04/16 01:35:20;;;;;;;17.63;10.75;;;6.50;99.90;;;;;;5075282;28;20051;-83
2022/04/16 01:37:46;;;;;;;19.00;10.82;;;6.90;99.90;;;;;;5058210;28;20044;-86
2022/04/16 01:40:14;;;;;;;18.88;11.70;;;6.40;99.90;;;;;;5057897;28;20110;-84
2022/04/16 01:42:41;;;;;;;22.45;12.75;;;6.40;99.90;;;;;;5058321;28;20044;-83
2022/04/16 01:45:11;;;;;;;21.40;12.55;;;7.00;99.90;;;;;;5058526;28;20123;-84
2022/04/16 01:47:40;;;;;;;23.38;12.85;;;6.60;99.90;;;;;;5041063;28;20032;-84
2022/04/16 01:50:08;;;;;;;22.73;13.20;;;6.80;99.90;;;;;;5075528;28;20131;-83
2022/04/16 01:52:36;;;;;;;22.42;13.70;;;6.60;99.90;;;;;;5057890;28;20393;-87
2022/04/16 01:55:03;;;;;;;23.08;13.23;;;7.00;99.90;;;;;;5057579;28;20132;-84
2022/04/16 01:57:28;;;;;;;21.65;12.95;;;6.70;99.90;;;;;;5075594;28;20484;-87
2022/04/16 01:59:54;;;;;;;24.60;12.90;;;7.30;99.90;;;;;;5057072;28;20041;-83
2022/04/16 02:02:20;;;;;;;21.80;13.10;;;6.90;99.90;;;;;;5075579;28;20041;-84
2022/04/16 02:04:46;;;;;;;25.00;13.50;;;6.80;99.90;;;;;;5041063;28;20051;-83
2022/04/16 02:07:13;;;;;;;21.65;12.80;;;7.40;99.90;;;;;;5076248;28;20044;-84
2022/04/16 02:09:39;;;;;;;22.77;13.15;;;7.10;99.90;;;;;;5041457;28;20105;-83
2022/04/16 02:12:05;;;;;;;24.42;13.50;;;7.50;99.90;;;;;;5058620;28;20052;-84
2022/04/16 02:14:31;;;;;;;22.15;13.02;;;6.70;99.90;;;;;;5076145;28;20055;-83
2022/04/16 02:17:00;;;;;;;23.65;13.10;;;6.70;99.90;;;;;;5040743;28;20044;-84
2022/04/16 02:19:27;;;;;;;21.52;12.93;;;7.20;99.90;;;;;;5075747;28;20052;-87
2022/04/16 02:21:52;;;;;;;23.00;13.52;;;7.40;99.90;;;;;;5057627;28;20044;-83
2022/04/16 02:24:18;;;;;;;24.70;13.70;;;7.30;99.90;;;;;;5075001;28;20040;-84
2022/04/16 02:26:44;;;;;;;24.20;13.98;;;6.90;99.90;;;;;;5074685;28;20124;-84
2022/04/16 02:29:11;;;;;;;23.15;14.13;;;7.00;99.90;;;;;;5057295;28;20051;-87
2022/04/16 02:31:37;;;;;;;26.45;14.43;;;6.90;99.90;;;;;;5057298;28;20080;-84
2022/04/16 02:34:05;;;;;;;26.45;14.73;;;6.90;99.90;;;;;;5057412;28;20055;-83
2022/04/16 02:36:31;;;;;;;27.08;14.32;;;7.30;99.90;;;;;;5057221;28;20395;-87
2022/04/16 02:38:57;;;;;;;25.10;14.73;;;7.00;99.90;;;;;;5040456;28;20048;-83
2022/04/16 02:41:27;;;;;;;26.98;15.45;;;7.20;99.90;;;;;;5041936;28;20048;-83
2022/04/16 02:43:58;;;;;;;29.83;14.88;;;7.20;99.90;;;;;;5058082;28;20430;-84
2022/04/16 02:49:09;;;;;;;29.02;14.90;;;7.10;99.90;;;;;;5078678;28;20041;-83
2022/04/16 02:51:36;;;;;;;30.95;16.55;;;7.10;99.90;;;;;;5060803;28;20055;-84
2022/04/16 02:54:01;;;;;;;27.90;15.43;;;7.20;99.90;;;;;;5061116;28;20555;-84
2022/04/16 02:56:27;;;;;;;28.88;16.70;;;7.20;99.90;;;;;;5046069;28;20091;-83
2022/04/16 02:58:53;;;;;;;30.80;16.23;;;7.20;99.90;;;;;;5045588;28;20387;-83
2022/04/16 03:01:19;;;;;;;26.55;15.43;;;7.00;99.90;;;;;;5061255;28;20076;-87
2022/04/16 03:03:44;;;;;;;29.35;16.80;;;7.60;99.90;;;;;;5059630;28;20048;-84
2022/04/16 03:06:10;;;;;;;29.20;16.23;;;7.40;99.90;;;;;;5076493;28;20396;-84
2022/04/16 03:08:36;;;;;;;31.60;16.27;;;7.20;99.90;;;;;;5058349;28;20557;-84
2022/04/16 03:11:04;;;;;;;30.15;16.92;;;7.30;99.90;;;;;;5058737;28;20144;-84
2022/04/16 03:13:34;;;;;;;29.75;16.00;;;7.20;99.90;;;;;;5057743;28;20059;-84
2022/04/16 03:18:47;;;;;;;27.00;16.63;;;7.20;99.90;;;;;;5076765;28;20422;-84
2022/04/16 03:21:13;;;;;;;33.80;17.55;;;7.50;99.90;;;;;;5042166;28;20036;-84
2022/04/16 03:23:39;;;;;;;28.35;16.40;;;7.30;99.90;;;;;;5076326;28;20083;-84
2022/04/16 03:26:04;;;;;;;31.75;17.45;;;7.40;99.90;;;;;;5042199;28;21037;-84
2022/04/16 03:28:32;;;;;;;31.77;18.00;;;8.00;99.90;;;;;;5059139;28;20135;-84
2022/04/16 03:30:58;;;;;;;30.20;16.70;;;7.20;99.90;;;;;;5042345;28;20102;-83
2022/04/16 03:33:23;;;;;;;30.58;17.40;;;7.30;99.90;;;;;;5057985;28;20059;-83
2022/04/16 03:35:51;;;;;;;30.52;17.13;;;7.30;99.90;;;;;;5076002;28;20040;-84
2022/04/16 03:38:20;;;;;;;31.65;17.35;;;7.30;99.90;;;;;;5075759;28;20047;-83
2022/04/16 03:40:48;;;;;;;33.00;17.98;;;7.30;99.90;;;;;;5058171;28;20067;-83
2022/04/16 03:43:13;;;;;;;29.95;17.42;;;7.30;99.90;;;;;;5041589;28;20040;-87
2022/04/16 03:45:39;;;;;;;28.25;15.90;;;7.30;99.90;;;;;;5041607;28;20391;-84
2022/04/16 03:48:06;;;;;;;32.45;18.08;;;7.30;99.90;;;;;;5076193;28;20036;-85
2022/04/16 03:50:33;;;;;;;31.92;17.63;;;7.30;99.90;;;;;;5060706;28;20028;-84
2022/04/16 03:52:59;;;;;;;29.63;16.80;;;7.30;99.90;;;;;;5065516;28;20503;-85
2022/04/16 04:00:58;;;;;;;32.05;17.98;;;7.30;99.90;;;;;;5085327;28;20118;-84
2022/04/16 04:03:24;;;;;;;35.20;18.75;;;7.20;99.90;;;;;;5060535;28;20036;-84
2022/04/16 04:05:53;;;;;;;31.77;18.80;;;7.20;99.90;;;;;;5042206;28;20044;-84
2022/04/16 04:08:20;;;;;;;33.05;18.65;;;7.20;99.90;;;;;;5041560;28;20044;-84
2022/04/16 04:10:46;;;;;;;33.25;17.88;;;7.50;99.90;;;;;;5076494;28;20055;-84
2022/04/16 04:13:12;;;;;;;33.80;18.30;;;7.20;99.90;;;;;;5077394;28;20044;-84
2022/04/16 04:15:37;;;;;;;34.45;18.90;;;7.20;99.90;;;;;;5042423;28;20070;-84
2022/04/16 04:18:03;;;;;;;32.53;18.20;;;7.20;99.90;;;;;;5042783;28;20438;-84
2022/04/16 04:20:29;;;;;;;32.67;17.95;;;7.20;99.90;;;;;;5077450;28;20048;-84
2022/04/16 04:22:56;;;;;;;36.70;19.90;;;7.20;99.90;;;;;;5042807;28;20041;-85
2022/04/16 04:25:22;;;;;;;36.33;18.15;;;7.30;99.90;;;;;;5043414;28;20041;-84
2022/04/16 04:27:48;;;;;;;37.10;20.15;;;7.10;99.90;;;;;;5060159;28;20066;-84
2022/04/16 04:30:14;;;;;;;35.90;19.05;;;7.10;99.90;;;;;;5059518;28;20044;-83
2022/04/16 04:32:40;;;;;;;36.75;19.33;;;7.10;99.90;;;;;;5043216;28;20098;-84
2022/04/16 04:35:07;;;;;;;36.33;19.65;;;7.10;99.90;;;;;;5076820;28;20102;-84
2022/04/16 04:37:34;;;;;;;35.45;18.70;;;7.10;99.90;;;;;;5042223;28;20051;-84
2022/04/16 04:40:00;;;;;;;39.28;19.70;;;7.50;99.90;;;;;;5059189;28;20044;-84
2022/04/16 04:42:30;;;;;;;38.13;19.83;;;7.40;99.90;;;;;;5042724;28;20049;-84
2022/04/16 04:44:56;;;;;;;35.25;18.60;;;7.10;99.90;;;;;;5059504;28;20052;-83
2022/04/16 04:47:22;;;;;;;38.53;19.83;;;7.70;99.90;;;;;;5042487;28;20387;-84
2022/04/16 04:49:48;;;;;;;38.42;19.90;;;7.10;99.90;;;;;;5075751;28;20041;-84
2022/04/16 04:52:21;;;;;;;37.80;19.00;;;7.10;99.90;;;;;;5059874;28;20072;-84
2022/04/16 04:54:47;;;;;;;38.97;19.45;;;7.10;99.90;;;;;;5058738;28;20036;-86
2022/04/16 04:57:13;;;;;;;39.13;20.23;;;7.20;99.90;;;;;;5040309;28;20056;-85
2022/04/16 04:59:38;;;;;;;39.15;19.58;;;7.80;99.90;;;;;;5058748;28;20511;-86
2022/04/16 05:02:06;;;;;;;39.10;19.60;;;7.10;99.90;;;;;;5042186;28;20404;-85
2022/04/16 05:04:32;;;;;;;38.08;20.30;;;7.10;99.90;;;;;;5074959;28;20043;-84
2022/04/16 05:06:57;;;;;;;32.78;18.85;;;7.40;99.90;;;;;;5042410;28;20062;-84
2022/04/16 05:09:24;;;;;;;38.60;19.80;;;6.90;99.90;;;;;;5059647;28;20052;-84
2022/04/16 05:11:50;;;;;;;40.25;19.98;;;7.80;99.90;;;;;;5074728;28;20049;-85
2022/04/16 05:14:15;;;;;;;38.75;19.77;;;7.10;99.90;;;;;;5060255;28;20040;-84
2022/04/16 05:16:41;;;;;;;36.53;19.35;;;7.50;99.90;;;;;;5075680;28;20044;-86
2022/04/16 05:19:07;;;;;;;35.85;19.50;;;7.10;99.90;;;;;;5074156;28;20044;-84
2022/04/16 05:21:33;;;;;;;37.55;19.30;;;7.70;99.90;;;;;;5072807;28;20054;-84
2022/04/16 05:23:58;;;;;;;39.20;19.45;;;7.10;99.90;;;;;;5074567;28;20041;-83
2022/04/16 05:26:24;;;;;;;38.78;20.23;;;7.10;99.90;;;;;;5039784;28;20472;-84
2022/04/16 05:28:50;;;;;;;42.00;20.83;;;7.40;99.90;;;;;;5039963;28;20040;-83
2022/04/16 05:31:19;;;;;;;37.38;19.85;;;7.20;99.90;;;;;;5056366;28;20486;-84
2022/04/16 05:36:29;;;;;;;38.53;19.70;;;7.20;99.90;;;;;;5063064;28;20060;-84
2022/04/16 05:38:54;;;;;;;35.42;19.38;;;7.30;99.90;;;;;;5046790;28;20051;-85
2022/04/16 05:41:20;;;;;;;37.20;19.02;;;7.20;99.90;;;;;;5081918;28;20043;-84
2022/04/16 05:43:46;;;;;;;37.03;19.42;;;7.30;99.90;;;;;;5078587;28;20545;-83
2022/04/16 05:46:11;;;;;;;32.72;18.48;;;7.30;99.90;;;;;;5043486;28;20123;-84
2022/04/16 05:48:38;;;;;;;33.03;18.58;;;7.30;99.90;;;;;;5077005;28;20044;-84
2022/04/16 05:51:04;;;;;;;31.58;16.95;;;7.90;99.90;;;;;;5039485;28;20476;-84
2022/04/16 05:53:31;;;;;;;30.88;17.35;;;8.30;99.90;;;;;;5056148;28;20438;-83
2022/04/16 05:55:59;;;;;;;32.58;17.52;;;8.20;99.90;;;;;;5039731;28;20048;-83
2022/04/16 05:58:25;;;;;;;29.75;16.17;;;7.60;99.90;;;;;;5074061;28;20496;-84
2022/04/16 06:00:51;;;;;;;29.83;16.55;;;8.10;99.90;;;;;;5056573;28;20395;-84
2022/04/16 06:03:17;;;;;;;29.58;16.58;;;7.70;99.90;;;;;;5056681;28;20045;-86
2022/04/16 06:05:42;;;;;;;28.90;16.58;;;8.10;99.90;;;;;;5039815;28;20040;-83
2022/04/16 06:08:09;;;;;;;30.33;15.70;;;7.80;99.90;;;;;;5073679;28;20136;-84
2022/04/16 06:10:37;;;;;;;27.80;16.02;;;7.90;99.90;;;;;;5073833;28;20044;-84
2022/04/16 06:13:03;;;;;;;25.95;15.15;;;8.20;99.90;;;;;;5039165;28;20056;-87
2022/04/16 06:15:32;;;;;;;26.70;15.52;;;8.00;99.90;;;;;;5073548;28;20049;-88
2022/04/16 06:17:58;;;;;;;27.02;15.27;;;7.90;99.90;;;;;;5039323;28;20106;-84
2022/04/16 06:20:24;;;;;;;25.60;14.68;;;8.70;99.90;;;;;;5039007;28;20127;-84
2022/04/16 06:22:49;;;;;;;24.20;14.45;;;8.10;99.90;;;;;;5058817;28;20127;-84
2022/04/16 06:25:15;;;;;;;25.48;14.18;;;7.90;99.90;;;;;;5043275;28;20140;-84
2022/04/16 06:27:41;;;;;;;26.95;15.07;;;7.90;99.90;;;;;;5059498;28;20045;-84
2022/04/16 06:30:10;;;;;;;24.77;14.40;;;8.00;99.90;;;;;;5060796;28;20090;-85
2022/04/16 06:32:37;;;;;;;22.98;13.98;;;8.00;99.90;;;;;;5059427;28;20135;-83
2022/04/16 06:35:05;;;;;;;23.85;13.85;;;8.00;99.90;;;;;;5026859;28;20083;-85
2022/04/16 06:37:34;;;;;;;24.70;14.57;;;8.00;99.90;;;;;;5077291;28;20084;-84
2022/04/16 06:40:02;;;;;;;25.02;14.93;;;8.10;99.90;;;;;;5078517;28;20109;-87
2022/04/16 06:42:28;;;;;;;24.40;13.50;;;8.10;99.90;;;;;;5044667;28;20078;-84
2022/04/16 06:44:53;;;;;;;22.60;13.20;;;8.10;99.90;;;;;;5043570;28;20433;-87
2022/04/16 06:47:19;;;;;;;21.02;12.32;;;8.10;99.90;;;;;;5042852;28;20047;-83
2022/04/16 06:49:45;;;;;;;22.13;13.13;;;8.40;99.90;;;;;;5077783;28;20090;-85
2022/04/16 06:52:12;;;;;;;23.25;13.27;;;8.10;99.90;;;;;;5043423;28;20041;-84
2022/04/16 06:54:38;;;;;;;21.00;12.93;;;8.20;99.90;;;;;;5060161;28;20052;-87
2022/04/16 06:57:04;;;;;;;22.23;12.32;;;8.20;99.90;;;;;;5060919;28;20047;-84
2022/04/16 06:59:30;;;;;;;22.85;12.73;;;8.30;99.90;;;;;;5091999;28;20056;-84
2022/04/16 07:01:55;;;;;;;20.05;12.05;;;8.30;99.90;;;;;;5089189;28;20043;-84
2022/04/16 07:04:21;;;;;;;20.88;13.00;;;8.40;99.90;;;;;;5050995;28;20074;-83
2022/04/16 07:06:47;;;;;;;19.58;11.57;;;8.40;99.90;;;;;;5081428;28;20036;-84
2022/04/16 07:09:12;;;;;;;21.30;11.77;;;8.50;99.90;;;;;;5058746;28;20040;-84
2022/04/16 07:11:38;;;;;;;19.95;10.75;;;8.50;99.90;;;;;;5076807;28;20090;-86
2022/04/16 07:14:04;;;;;;;18.75;11.52;;;8.70;99.90;;;;;;5042785;28;20036;-86
2022/04/16 07:16:30;;;;;;;18.13;10.75;;;8.70;99.90;;;;;;5077226;28;20086;-83
2022/04/16 07:18:55;;;;;;;18.65;10.73;;;8.80;99.90;;;;;;5077037;28;20082;-88
2022/04/16 07:21:21;;;;;;;21.25;11.23;;;9.30;99.90;;;;;;5059269;28;20059;-84
2022/04/16 07:23:46;;;;;;;20.52;11.38;;;8.90;99.90;;;;;;5058909;28;20067;-83
2022/04/16 07:26:12;;;;;;;18.80;10.68;;;9.30;99.90;;;;;;5042538;28;20049;-84
2022/04/16 07:28:38;;;;;;;21.27;10.82;;;9.00;99.90;;;;;;5059229;28;20056;-87
2022/04/16 07:31:03;;;;;;;22.60;10.88;;;9.70;99.90;;;;;;5042960;28;20044;-88
2022/04/16 07:33:29;;;;;;;18.13;10.23;;;9.20;99.90;;;;;;5058094;28;20555;-87
2022/04/16 07:35:55;;;;;;;16.50;9.70;;;9.30;99.90;;;;;;5077074;28;20045;-87
2022/04/16 07:38:21;;;;;;;17.08;10.02;;;9.40;99.90;;;;;;5058852;28;20186;-84
2022/04/16 07:40:47;;;;;;;17.52;9.82;;;9.50;99.90;;;;;;5075009;28;20044;-87
2022/04/16 07:43:15;;;;;;;15.48;9.07;;;9.60;99.90;;;;;;5058472;28;20051;-83
2022/04/16 07:45:41;;;;;;;19.02;10.48;;;9.70;99.90;;;;;;5059250;28;20063;-84
2022/04/16 07:48:07;;;;;;;16.58;9.38;;;9.80;99.90;;;;;;5058618;28;20044;-84
2022/04/16 07:50:33;;;;;;;15.40;9.50;;;9.80;99.90;;;;;;5076702;28;20056;-84
2022/04/16 07:52:59;;;;;;;14.95;9.40;;;10.10;99.90;;;;;;5041243;28;20127;-84
2022/04/16 07:55:28;;;;;;;19.77;9.93;;;9.70;99.90;;;;;;5075827;28;20051;-83
2022/04/16 07:57:54;;;;;;;15.38;9.75;;;9.80;99.90;;;;;;5075945;28;20143;-84
2022/04/16 08:00:19;;;;;;;18.25;9.48;;;9.90;99.90;;;;;;5076095;28;20045;-86
2022/04/16 08:02:45;;;;;;;17.80;9.10;;;10.20;99.90;;;;;;5058719;28;20046;-84
2022/04/16 08:05:11;;;;;;;16.58;9.77;;;10.00;99.90;;;;;;5046153;28;20040;-84
2022/04/16 08:07:37;;;;;;;17.15;9.18;;;10.10;99.90;;;;;;5045892;28;20041;-89
2022/04/16 08:10:03;;;;;;;15.82;8.90;;;10.80;99.90;;;;;;5045292;28;20051;-83
2022/04/16 08:12:29;;;;;;;16.85;9.00;;;10.20;99.90;;;;;;5046325;28;20048;-83
2022/04/16 08:14:55;;;;;;;16.17;8.90;;;10.20;99.90;;;;;;5045828;28;20075;-84
2022/04/16 08:17:20;;;;;;;15.63;9.05;;;11.10;99.90;;;;;;5046038;28;20055;-86
2022/04/16 08:19:46;;;;;;;16.98;8.90;;;10.50;99.90;;;;;;5087262;22;20041;-84
2022/04/16 08:22:17;;;;;;;15.25;8.65;;;10.60;99.90;;;;;;5047202;28;20054;-83
2022/04/16 08:24:54;;;;;;;16.20;8.70;;;10.70;99.90;;;;;;5092950;22;20047;-83
2022/04/16 08:27:20;;;;;;;15.15;8.80;;;10.70;99.90;;;;;;5103292;28;20036;-84
2022/04/16 08:29:47;;;;;;;14.50;8.73;;;10.80;99.90;;;;;;5088116;28;20047;-83
2022/04/16 08:32:12;;;;;;;13.48;8.00;;;11.00;99.90;;;;;;5086676;28;20417;-84
2022/04/16 08:34:38;;;;;;;13.50;8.65;;;11.40;99.90;;;;;;5088141;28;20044;-83
2022/04/16 08:37:04;;;;;;;15.35;8.52;;;11.20;99.90;;;;;;5087520;28;20055;-86
2022/04/16 08:39:30;;;;;;;16.33;8.50;;;11.30;99.90;;;;;;5122492;28;20036;-83
2022/04/16 08:41:57;;;;;;;15.15;8.25;;;11.60;99.90;;;;;;5087336;28;20484;-83
2022/04/16 08:44:25;;;;;;;13.25;7.93;;;11.20;99.90;;;;;;5086920;28;20044;-84
2022/04/16 08:46:54;;;;;;;12.90;8.13;;;11.40;99.90;;;;;;5110940;22;20528;-84
2022/04/16 08:49:21;;;;;;;13.40;7.55;;;11.40;99.90;;;;;;5110976;23;20048;-83
2022/04/16 08:51:48;;;;;;;11.75;7.00;;;11.50;99.90;;;;;;5089430;22;20056;-84
2022/04/16 08:54:14;;;;;;;14.45;7.75;;;11.50;99.90;;;;;;5072218;28;20045;-83
2022/04/16 08:56:39;;;;;;;12.48;7.30;;;11.80;99.90;;;;;;5090782;22;20135;-83
2022/04/16 08:59:05;;;;;;;11.82;7.15;;;11.90;99.90;;;;;;5095258;28;20044;-83
2022/04/16 09:01:33;;;;;;;12.05;7.20;;;11.60;99.90;;;;;;5105994;28;20104;-85
2022/04/16 09:03:59;;;;;;;12.35;7.60;;;12.40;99.90;;;;;;5084923;22;20113;-86
2022/04/16 09:06:25;;;;;;;10.95;6.78;;;11.70;99.90;;;;;;5080174;28;20106;-83
2022/04/16 09:08:51;;;;;;;12.45;7.68;;;12.00;99.90;;;;;;5107411;22;20052;-83
2022/04/16 09:11:21;;;;;;;12.73;7.53;;;12.00;99.90;;;;;;5089386;22;20059;-83
2022/04/16 09:13:53;;;;;;;12.48;7.45;;;11.90;99.90;;;;;;5082362;28;20040;-83
2022/04/16 09:16:20;;;;;;;11.82;7.18;;;12.00;99.90;;;;;;5080019;22;20064;-83
2022/04/16 09:18:54;;;;;;;12.50;7.15;;;12.10;99.90;;;;;;5043843;28;20037;-83
2022/04/16 09:21:24;;;;;;;10.80;7.35;;;12.90;99.90;;;;;;5072893;22;20095;-83
2022/04/16 09:23:53;;;;;;;14.02;7.40;;;12.20;99.90;;;;;;5050827;23;20041;-83
2022/04/16 09:26:37;;;;;;;11.52;6.65;;;12.20;99.90;;;;;;5096003;22;20067;-85
2022/04/16 09:29:14;;;;;;;11.15;6.80;;;12.40;99.90;;;;;;5061916;28;20048;-89
2022/04/16 09:31:46;;;;;;;9.65;6.30;;;12.60;99.90;;;;;;5062836;28;20045;-83
2022/04/16 09:36:40;;;;;;;11.43;6.95;;;12.60;99.90;;;;;;5123775;22;20072;-83
2022/04/16 09:39:07;;;;;;;11.48;6.35;;;12.80;99.90;;;;;;5097751;23;20415;-88
2022/04/16 09:41:34;;;;;;;10.10;5.90;;;13.00;99.90;;;;;;5085220;28;20134;-83
2022/04/16 09:44:01;;;;;;;11.80;7.13;;;12.80;99.90;;;;;;5086210;28;20074;-85
2022/04/16 09:46:28;;;;;;;9.45;6.20;;;13.40;99.90;;;;;;5086070;28;20078;-83
2022/04/16 09:49:04;;;;;;;8.73;5.43;;;13.00;99.90;;;;;;5120417;28;20054;-83
2022/04/16 09:51:34;;;;;;;7.40;4.82;;;13.00;99.90;;;;;;5087133;28;20040;-83
2022/04/16 09:54:05;;;;;;;8.68;5.28;;;13.10;99.90;;;;;;5085610;28;20130;-83
2022/04/16 09:56:37;;;;;;;10.23;5.50;;;13.20;99.90;;;;;;5111102;22;20036;-84
2022/04/16 09:59:05;;;;;;;7.05;4.43;;;13.30;99.90;;;;;;5095777;23;20043;-88
2022/04/16 10:01:32;;;;;;;6.15;3.90;;;13.40;99.90;;;;;;5102954;23;20063;-86
2022/04/16 10:04:00;;;;;;;6.80;4.25;;;13.60;99.90;;;;;;5095261;22;20055;-89
2022/04/16 10:06:31;;;;;;;6.63;4.63;;;13.70;99.90;;;;;;5103204;23;20547;-83
2022/04/16 10:08:58;;;;;;;6.43;3.88;;;13.70;99.90;;;;;;5097094;22;20065;-84
2022/04/16 10:12:59;;;;;;;7.38;3.95;;;13.70;99.90;;;;;;5088114;28;20048;-85
2022/04/16 10:14:54;;;;;;;5.95;3.60;;;14.30;99.90;;;;;;5106788;28;20109;-83
2022/04/16 10:17:26;;;;;;;5.20;3.47;;;13.90;99.90;;;;;;5107603;28;20071;-84
2022/04/16 10:19:54;;;;;;;6.40;3.67;;;13.90;99.90;;;;;;5105283;22;20406;-83
2022/04/16 10:22:25;;;;;;;6.15;3.25;;;14.10;99.90;;;;;;5114928;22;20048;-86
2022/04/16 10:24:54;;;;;;;4.53;3.05;;;14.60;99.90;;;;;;5116196;22;20437;-83
2022/04/16 10:27:31;;;;;;;4.97;3.03;;;14.70;99.90;;;;;;5131023;28;20039;-86
2022/04/16 10:30:01;;;;;;;6.07;3.40;;;14.20;99.90;;;;;;5122815;28;20056;-84
2022/04/16 10:32:43;;;;;;;7.13;3.80;;;14.40;99.90;;;;;;5127235;27;20040;-86
2022/04/16 10:35:14;;;;;;;4.50;2.88;;;14.40;99.90;;;;;;5107077;28;20483;-87
2022/04/16 10:37:42;;;;;;;4.88;2.53;;;14.70;99.90;;;;;;5105421;28;20042;-84
2022/04/16 10:40:19;;;;;;;4.40;2.35;;;14.50;99.90;;;;;;5125284;28;20047;-90
2022/04/16 10:42:50;;;;;;;4.50;2.78;;;14.50;99.90;;;;;;5115159;22;20491;-85
2022/04/16 10:45:16;;;;;;;4.95;2.70;;;14.60;99.90;;;;;;5109126;22;20048;-85
2022/04/16 10:47:42;;;;;;;4.70;2.95;;;14.70;99.90;;;;;;5114758;22;20207;-90
2022/04/16 10:50:17;;;;;;;5.38;2.50;;;14.90;99.90;;;;;;5112290;23;20048;-87
2022/04/16 10:52:56;;;;;;;4.18;2.42;;;15.10;99.90;;;;;;5087755;28;20375;-83
2022/04/16 10:55:36;;;;;;;4.22;2.28;;;15.10;99.90;;;;;;5094606;22;20063;-86
2022/04/16 10:58:06;;;;;;;5.43;2.90;;;15.20;99.90;;;;;;5097581;23;20410;-83
2022/04/16 11:00:45;;;;;;;4.20;2.45;;;15.20;99.90;;;;;;5087169;28;20106;-83
2022/04/16 11:03:17;;;;;;;3.72;2.20;;;15.20;99.90;;;;;;5116231;22;20031;-83
2022/04/16 11:05:43;;;;;;;3.00;1.60;;;15.40;99.90;;;;;;5092173;22;20119;-87
2022/04/16 11:08:15;;;;;;;3.60;1.65;;;16.00;99.90;;;;;;5109794;22;20039;-89
2022/04/16 11:10:41;;;;;;;3.42;2.00;;;16.00;99.90;;;;;;5059208;28;20511;-84
2022/04/16 11:13:08;;;;;;;2.90;1.80;;;15.70;99.90;;;;;;5080619;22;20495;-83
2022/04/16 11:15:34;;;;;;;2.75;1.67;;;16.00;99.90;;;;;;5124637;22;20063;-83
2022/04/16 11:18:01;;;;;;;3.70;1.52;;;16.20;99.90;;;;;;5108566;27;20421;-83
2022/04/16 11:20:28;;;;;;;3.60;1.70;;;15.70;99.90;;;;;;5111342;22;20048;-83
2022/04/16 11:22:54;;;;;;;3.33;1.65;;;15.80;99.90;;;;;;5094077;22;20055;-83
2022/04/16 11:25:24;;;;;;;3.08;1.65;;;15.90;99.10;;;;;;5080526;22;20071;-82
2022/04/16 11:36:09;;;;;;;3.20;1.83;;;16.20;99.90;;;;;;5087605;22;20079;-82
2022/04/16 11:38:39;;;;;;;4.60;1.90;;;16.30;97.70;;;;;;5062147;28;20048;-83
2022/04/16 11:41:10;;;;;;;3.97;2.17;;;16.40;97.40;;;;;;5063774;28;20067;-81
2022/04/16 11:43:45;;;;;;;3.15;1.70;;;16.60;97.90;;;;;;5068899;22;20044;-82
2022/04/16 11:46:13;;;;;;;3.42;1.50;;;16.50;96.90;;;;;;5069318;22;20050;-83
2022/04/16 11:48:48;;;;;;;2.45;1.20;;;16.40;95.00;;;;;;5106545;22;20089;-81
2022/04/16 11:51:16;;;;;;;3.42;1.30;;;16.50;92.10;;;;;;5128253;27;20093;-82
2022/04/16 11:53:51;;;;;;;2.10;1.10;;;16.70;91.40;;;;;;5147058;27;20064;-81
2022/04/16 11:56:26;;;;;;;2.72;1.30;;;16.60;90.20;;;;;;5096857;22;20060;-82
2022/04/16 11:58:52;;;;;;;2.22;1.30;;;16.70;87.00;;;;;;5106254;28;20067;-81
2022/04/16 12:01:24;;;;;;;2.55;1.50;;;17.10;90.30;;;;;;5082536;28;20040;-82
2022/04/16 12:03:56;;;;;;;4.00;1.55;;;16.80;80.60;;;;;;5083382;28;20430;-82
2022/04/16 12:06:22;;;;;;;3.45;1.40;;;16.70;82.20;;;;;;5117857;22;20049;-81
2022/04/16 12:08:52;;;;;;;2.92;1.70;;;16.70;80.80;;;;;;5101508;28;20052;-89
2022/04/16 12:11:22;;;;;;;2.80;1.60;;;17.20;79.30;;;;;;5092325;22;20058;-81
2022/04/16 12:13:51;;;;;;;2.42;1.27;;;17.20;81.50;;;;;;5100432;28;20086;-84
2022/04/16 12:16:17;;;;;;;2.95;1.58;;;17.20;80.90;;;;;;5082926;28;20051;-82
2022/04/16 12:18:49;;;;;;;3.67;1.40;;;17.40;79.00;;;;;;5099353;28;20043;-82
2022/04/16 12:21:16;;;;;;;2.30;1.40;;;17.40;75.80;;;;;;5099581;28;20065;-83
2022/04/16 12:23:44;;;;;;;2.53;1.27;;;17.40;76.60;;;;;;5073329;23;20052;-82
2022/04/16 12:26:17;;;;;;;2.10;0.90;;;17.50;74.90;;;;;;5065140;28;20127;-81
2022/04/16 12:28:48;;;;;;;3.42;1.10;;;17.50;69.20;;;;;;5103053;22;20060;-82
2022/04/16 12:31:34;;;;;;;2.90;1.00;;;17.60;67.30;;;;;;5062926;28;20039;-82
2022/04/16 12:34:01;;;;;;;2.53;0.88;;;17.90;65.10;;;;;;5089065;28;20062;-82
2022/04/16 12:36:27;;;;;;;2.65;0.93;;;17.80;66.80;;;;;;5076669;28;20043;-82
2022/04/16 12:38:55;;;;;;;1.83;0.90;;;17.80;63.10;;;;;;5112989;22;20043;-81
2022/04/16 12:41:21;;;;;;;1.98;1.08;;;17.70;63.10;;;;;;5054084;28;20052;-88
2022/04/16 12:43:47;;;;;;;2.30;1.13;;;17.80;63.80;;;;;;5062874;28;20403;-82
2022/04/16 12:46:16;;;;;;;2.00;1.10;;;17.90;62.80;;;;;;5093008;22;20064;-81
2022/04/16 12:48:42;;;;;;;1.92;1.05;;;17.50;60.50;;;;;;5085924;22;20058;-82
2022/04/16 12:51:10;;;;;;;2.53;1.10;;;17.60;63.20;;;;;;5070901;28;20116;-82
2022/04/16 12:53:36;;;;;;;2.25;0.80;;;17.50;62.10;;;;;;5071672;28;20458;-81
2022/04/16 12:56:02;;;;;;;2.03;0.85;;;17.50;62.60;;;;;;5087081;22;20048;-81
2022/04/16 12:58:27;;;;;;;2.13;1.00;;;17.60;63.40;;;;;;5081846;22;20113;-82
2022/04/16 13:00:53;;;;;;;3.42;0.88;;;17.80;63.50;;;;;;5081556;22;20564;-81
2022/04/16 13:03:19;;;;;;;2.22;0.80;;;17.80;63.10;;;;;;5088622;23;20157;-86
2022/04/16 13:05:45;;;;;;;1.67;0.93;;;18.10;62.20;;;;;;5107539;22;20071;-83